Thunder radar more information blitzortung!


Radar de pluja more information rain snow radar


Visita la nostra xarxa de llocs de meteo:

Template documentation
and downloads

And another site



No particular awareness of the weather is required.    There are no Weather-warnings

Pagina Historial Weather Underground text

Diari Resum Juny 21, 2017 Unitats:  Mètric    Imperial   Tant
« Previous Dia
SegĂźent Dia »
Diari Setmana Mensual Anual Personalitzada
  Maxima: Minima: Media:
Temperatura: -17.8 °C -6.2 °C -1.9 °C
Punt de rosada: -17.8 °C -10.5 °C -8.9 °C
Humitat: Humidity % 35 % 47 %
Wind Speed: 0 km/h 0 km/h 11.1 km/h
RĂ fegues de vent: 0 km/h - -
Vent:- - SW
Pression baro: 0 hPa 34293.4 hPa -
Precipitacions: 0 mm    
Historical Graphs
 
 
Dades de taula per Juny 21, 2017
Temps Temperatura Punt de rosada Pression baro Vent Wind Speed RĂ fegues de vent Humitat Rainfall Rate (Hourly)
-17.8 °C -17.8 °C 0 hPa Calm     Humidity % 0 mm
00:04 -4.7 °C -9.4 °C 34395 hPa West 9 km/h 9 km/h 59 % 0 mm
00:05 -5.6 °C -10.1 °C 34327.3 hPa WSW 5.1 km/h 10.3 km/h 60 % 0 mm
00:09 -4.8 °C -9.5 °C 34395 hPa WSW 11.9 km/h 11.9 km/h 59 % 0 mm
00:15 -5.6 °C -10.2 °C 34327.3 hPa West 5.1 km/h 5.1 km/h 59 % 0 mm
00:25 -5.6 °C -10.4 °C 34327.3 hPa West 5.1 km/h 5.1 km/h 58 % 0 mm
00:35 -5.6 °C -10.3 °C 34327.3 hPa Calm   5.1 km/h 59 % 0 mm
00:45 -5.7 °C -10.4 °C 34327.3 hPa WNW 2.6 km/h 5.1 km/h 59 % 0 mm
01:05 -5.8 °C -10.4 °C 34327.3 hPa Calm   5.1 km/h 59 % 0 mm
01:15 -5.8 °C -10.3 °C 34361.1 hPa NW 2.6 km/h 5.1 km/h 60 % 0 mm
01:25 -6 °C -10.5 °C 34327.3 hPa Calm   2.6 km/h 60 % 0 mm
01:35 -6.1 °C -10.5 °C 34327.3 hPa North 5.1 km/h 5.1 km/h 60 % 0 mm
01:45 -6.2 °C -10.5 °C 34327.3 hPa NE 2.6 km/h 5.1 km/h 61 % 0 mm
01:55 -6.2 °C -10.5 °C 34361.1 hPa NNE 2.6 km/h 2.6 km/h 61 % 0 mm
02:05 -6.1 °C -10.4 °C 34361.1 hPa North 5.1 km/h 5.1 km/h 61 % 0 mm
02:15 -6 °C -10.3 °C 34327.3 hPa NNE 2.6 km/h 7.7 km/h 61 % 0 mm
02:25 -5.8 °C -10.2 °C 34361.1 hPa North 2.6 km/h 2.6 km/h 61 % 0 mm
02:35 -6.1 °C -10.4 °C 34361.1 hPa West 2.6 km/h 5.1 km/h 61 % 0 mm
02:45 -5.6 °C -10.1 °C 34361.1 hPa West 2.6 km/h 7.7 km/h 60 % 0 mm
02:55 -5.5 °C -10.2 °C 34361.1 hPa NE 5.1 km/h 7.7 km/h 59 % 0 mm
03:05 -5.2 °C -9.9 °C 34361.1 hPa Calm   5.1 km/h 59 % 0 mm
03:15 -4.9 °C -9.7 °C 34361.1 hPa Calm   7.7 km/h 58 % 0 mm
03:25 -4.7 °C -9.7 °C 34361.1 hPa NE 2.6 km/h 5.1 km/h 57 % 0 mm
03:35 -4.5 °C -9.5 °C 34361.1 hPa ENE 2.6 km/h 5.1 km/h 57 % 0 mm
03:45 -4.4 °C -9.8 °C 34361.1 hPa Calm   7.7 km/h 55 % 0 mm
03:55 -4 °C -9.3 °C 34361.1 hPa NNE 2.6 km/h 5.1 km/h 55 % 0 mm
04:05 -4.1 °C -9.6 °C 34361.1 hPa SSW 5.1 km/h 7.7 km/h 54 % 0 mm
04:15 -3.9 °C -9.5 °C 34361.1 hPa SW 2.6 km/h 7.7 km/h 54 % 0 mm
04:25 -3.4 °C -9.3 °C 34361.1 hPa SSW 2.6 km/h 7.7 km/h 52 % 0 mm
04:35 -3.1 °C -9.2 °C 34361.1 hPa SSE 5.1 km/h 5.1 km/h 51 % 0 mm
04:45 -3.1 °C -9.2 °C 34361.1 hPa SSE 5.1 km/h 7.7 km/h 51 % 0 mm
04:55 -2.8 °C -9.1 °C 34361.1 hPa ESE 2.6 km/h 5.1 km/h 50 % 0 mm
05:05 -2.8 °C -9.1 °C 34361.1 hPa NW 5.1 km/h 10.3 km/h 50 % 0 mm
05:15 -2.4 °C -8.9 °C 34361.1 hPa SW 5.1 km/h 5.1 km/h 49 % 0 mm
05:25 -2.2 °C -8.9 °C 34361.1 hPa Calm   5.1 km/h 48 % 0 mm
05:35 -1.7 °C -8.6 °C 34361.1 hPa SE 2.6 km/h 5.1 km/h 47 % 0 mm
05:45 -1.6 °C -8.7 °C 34361.1 hPa SSW 2.6 km/h 7.7 km/h 46 % 0 mm
10:47 -1.2 °C -8.5 °C 34361.1 hPa East 6.8 km/h 6.8 km/h 45 % 0 mm
10:52 -1.1 °C -8.4 °C 34361.1 hPa SW 6 km/h 6 km/h 45 % 0 mm
10:57 -1.1 °C -8.4 °C 34361.1 hPa SW 6 km/h 6 km/h 45 % 0 mm
11:02 -0.9 °C -8.5 °C 34361.1 hPa SSE 9 km/h 9 km/h 44 % 0 mm
11:07 -0.8 °C -8.4 °C 34361.1 hPa SW 6 km/h   44 % 0 mm
11:12 -0.7 °C -8.3 °C 34361.1 hPa SSW 6.3 km/h 6.3 km/h 44 % 0 mm
11:17 -0.7 °C -8.3 °C 34361.1 hPa SSW 9 km/h 9 km/h 44 % 0 mm
11:22 -0.7 °C -8.5 °C 34361.1 hPa SW 11.9 km/h 11.9 km/h 43 % 0 mm
11:27 -0.6 °C -8.4 °C 34361.1 hPa WSW 9 km/h 9 km/h 43 % 0 mm
11:32 -0.7 °C -8.7 °C 34361.1 hPa ENE 9 km/h 9 km/h 42 % 0 mm
11:37 -0.7 °C -8.7 °C 34361.1 hPa SW 15 km/h 15 km/h 42 % 0 mm
11:42 -0.7 °C -8.7 °C 34361.1 hPa SSW 11.9 km/h 11.9 km/h 42 % 0 mm
11:47 -0.4 °C -8.7 °C 34361.1 hPa WSW 9 km/h 9 km/h 41 % 0 mm
11:52 -0.1 °C -8.4 °C 34361.1 hPa SW 9 km/h 9 km/h 41 % 0 mm
11:57 0.2 °C -8.1 °C 34361.1 hPa WNW 11.9 km/h 11.9 km/h 41 % 0 mm
12:02 0.2 °C -8.3 °C 34361.1 hPa WSW 15 km/h 15 km/h 40 % 0 mm
12:07 0.2 °C -8.6 °C 34361.1 hPa SW 10.3 km/h 10.3 km/h 39 % 0 mm
12:12 0.3 °C -8.4 °C 34361.1 hPa SW 6 km/h 6 km/h 39 % 0 mm
12:17 0.3 °C -8.7 °C 34361.1 hPa SSE 11.9 km/h 11.9 km/h 38 % 0 mm
12:22 0.6 °C -8.7 °C 34361.1 hPa SE 14.5 km/h 14.5 km/h 37 % 0 mm
12:27 0.6 °C -8.7 °C 34361.1 hPa East 9 km/h 9 km/h 37 % 0 mm
12:32 1.1 °C -8.2 °C 34327.3 hPa WSW 11.9 km/h 11.9 km/h 37 % 0 mm
12:37 1.2 °C -8.1 °C 34327.3 hPa West 15 km/h 15 km/h 37 % 0 mm
12:42 1.2 °C -8.2 °C 34327.3 hPa West 11.9 km/h 11.9 km/h 37 % 0 mm
12:47 0.9 °C -8.6 °C 34361.1 hPa WSW 17.9 km/h 17.9 km/h 36 % 0 mm
12:52 1.3 °C -8.5 °C 34361.1 hPa ESE 11.9 km/h 11.9 km/h 35 % 0 mm
12:57 1.5 °C -8.1 °C 34361.1 hPa SW 7.6 km/h 7.6 km/h 36 % 0 mm
13:02 1.6 °C -7.8 °C 34327.3 hPa SW 9 km/h 9 km/h 37 % 0 mm
13:08 1.2 °C -8.1 °C 34327.3 hPa SSW 11.9 km/h 11.9 km/h 37 % 0 mm
13:13 1.7 °C -8.2 °C 34327.3 hPa SW 12.2 km/h 12.2 km/h 35 % 0 mm
13:18 1.5 °C -8.1 °C 34361.1 hPa SSW 11.9 km/h 11.9 km/h 36 % 0 mm
13:23 1.4 °C -7.9 °C 34361.1 hPa SW 12.2 km/h 12.2 km/h 37 % 0 mm
13:28 1.5 °C -7.8 °C 34361.1 hPa WSW 20.9 km/h 20.9 km/h 37 % 0 mm
13:33 1.4 °C -7.9 °C 34327.3 hPa SW 11.9 km/h 11.9 km/h 37 % 0 mm
13:38 1.7 °C -7.9 °C 34327.3 hPa SW 15 km/h 15 km/h 36 % 0 mm
13:43 1.7 °C -7.9 °C 34327.3 hPa SSW 8 km/h 8 km/h 36 % 0 mm
13:48 1.3 °C -8 °C 34327.3 hPa SSW 23.8 km/h 23.8 km/h 37 % 0 mm
13:53 1 °C -8.1 °C 34327.3 hPa SW 32.8 km/h 32.8 km/h 38 % 0 mm
13:58 1.1 °C -7.9 °C 34327.3 hPa SW 23.8 km/h 23.8 km/h 38 % 0 mm
14:03 1 °C -8.1 °C 34327.3 hPa WSW 15 km/h 15 km/h 38 % 0 mm
14:08 0.7 °C -8.3 °C 34327.3 hPa SW 20.9 km/h 20.9 km/h 38 % 0 mm
14:13 0.8 °C -8.2 °C 34327.3 hPa WNW 17.9 km/h 17.9 km/h 38 % 0 mm
14:18 0.9 °C -8.2 °C 34327.3 hPa SW 20.9 km/h 20.9 km/h 38 % 0 mm
14:23 0.9 °C -8.2 °C 34327.3 hPa SW 17.9 km/h 17.9 km/h 38 % 0 mm
14:28 0.8 °C -8.2 °C 34327.3 hPa SSW 26.9 km/h 26.9 km/h 38 % 0 mm
14:33 0.8 °C -8.2 °C 34293.4 hPa WSW 23.8 km/h 23.8 km/h 38 % 0 mm
14:38 0.7 °C -8.3 °C 34293.4 hPa West 20.9 km/h 20.9 km/h 38 % 0 mm
14:43 0.7 °C -8.3 °C 34293.4 hPa SSW 26.9 km/h 26.9 km/h 38 % 0 mm
14:48 0.8 °C -8.2 °C 34293.4 hPa South 17.9 km/h 17.9 km/h 38 % 0 mm
14:53 0.9 °C -8.2 °C 34293.4 hPa SSW 25.4 km/h 25.4 km/h 38 % 0 mm
14:58 0.7 °C -8.3 °C 34293.4 hPa SW 17.9 km/h 17.9 km/h 38 % 0 mm
15:03 0.7 °C -8.3 °C 34293.4 hPa SW 17.4 km/h 17.4 km/h 38 % 0 mm
15:08 0.6 °C -8.4 °C 34293.4 hPa SW 26.4 km/h 26.4 km/h 38 % 0 mm
15:13 0.9 °C -8.2 °C 34293.4 hPa SW 20.9 km/h 20.9 km/h 38 % 0 mm
15:18 1 °C -8.3 °C 34293.4 hPa SSW 17.9 km/h 17.9 km/h 37 % 0 mm
15:23 1.1 °C -8.2 °C 34293.4 hPa SW 11.9 km/h 11.9 km/h 37 % 0 mm
15:28 0.9 °C -8.3 °C 34293.4 hPa SSE 26.9 km/h 26.9 km/h 37 % 0 mm
15:33 1.1 °C -8.2 °C 34293.4 hPa South 20.9 km/h 20.9 km/h 37 % 0 mm
15:38 1 °C -8.3 °C 34293.4 hPa SW 26.9 km/h 26.9 km/h 37 % 0 mm
15:43 1.1 °C -8.2 °C 34293.4 hPa WSW 15.6 km/h 15.6 km/h 37 % 0 mm
15:48 1.4 °C -7.9 °C 34327.3 hPa WSW 15 km/h 15 km/h 37 % 0 mm
15:53 1.3 °C -8.1 °C 34327.3 hPa SW 25.9 km/h 25.9 km/h 37 % 0 mm
15:58 0.9 °C -8.4 °C 34327.3 hPa SW 15.3 km/h 15.3 km/h 37 % 0 mm
16:03 0.9 °C -8.4 °C 34293.4 hPa South 20.9 km/h 20.9 km/h 37 % 0 mm
16:08 1.1 °C -8.2 °C 34293.4 hPa SSW 15 km/h 15 km/h 37 % 0 mm
16:13 0.9 °C -8.3 °C 34293.4 hPa South 20.9 km/h 20.9 km/h 37 % 0 mm
16:14 0.9 °C -8.4 °C 34327.3 hPa West 20.9 km/h 20.9 km/h 37 % 0 mm
16:19 1.1 °C -8.2 °C 34327.3 hPa WSW 16.6 km/h 16.6 km/h 37 % 0 mm
16:24 0.9 °C -8.4 °C 34327.3 hPa SSW 15 km/h 15 km/h 37 % 0 mm
16:29 0.7 °C -8.3 °C 34327.3 hPa South 15.3 km/h 15.3 km/h 38 % 0 mm
16:34 0.5 °C -8.3 °C 34327.3 hPa SW 17.9 km/h 17.9 km/h 39 % 0 mm
16:39 0.3 °C -8.4 °C 34327.3 hPa SW 17.9 km/h 17.9 km/h 39 % 0 mm
16:44 0.2 °C -8.6 °C 34327.3 hPa South 20.9 km/h 20.9 km/h 39 % 0 mm
16:49 -0.1 °C -8.8 °C 34327.3 hPa SW 20.9 km/h 20.9 km/h 39 % 0 mm
16:54 -0.3 °C -9 °C 34327.3 hPa SW 20.9 km/h 20.9 km/h 39 % 0 mm
16:59 -0.3 °C -8.9 °C 34327.3 hPa WSW 15 km/h 15 km/h 39 % 0 mm
17:04 -0.4 °C -9.1 °C 34327.3 hPa SSW 15 km/h 15 km/h 39 % 0 mm
17:09 -0.6 °C -9.1 °C 34327.3 hPa SW 15 km/h 15 km/h 40 % 0 mm
17:14 -0.7 °C -8.9 °C 34327.3 hPa West 15 km/h 15 km/h 41 % 0 mm
17:19 -0.8 °C -9 °C 34327.3 hPa WSW 17.9 km/h 17.9 km/h 41 % 0 mm
17:24 -1 °C -9.2 °C 34327.3 hPa SW 15 km/h 15 km/h 41 % 0 mm
17:29 -1.1 °C -9.1 °C 34327.3 hPa WSW 23.8 km/h 23.8 km/h 42 % 0 mm
17:34 -1.3 °C -9 °C 34327.3 hPa SSW 17.9 km/h 17.9 km/h 43 % 0 mm
17:39 -1.3 °C -9.1 °C 34327.3 hPa SW 11.1 km/h 11.1 km/h 43 % 0 mm
17:44 -1.4 °C -9.2 °C 34327.3 hPa WSW 14 km/h 14 km/h 43 % 0 mm
17:49 -1.6 °C -9.1 °C 34327.3 hPa SW 15 km/h 15 km/h 44 % 0 mm
17:54 -1.7 °C -9.2 °C 34327.3 hPa SW 29.8 km/h 29.8 km/h 44 % 0 mm
17:59 -1.7 °C -8.8 °C 34327.3 hPa SW 15.3 km/h 15.3 km/h 46 % 0 mm
18:04 -1.9 °C -8.8 °C 34327.3 hPa SW 26.9 km/h 26.9 km/h 47 % 0 mm
18:09 -1.9 °C -8.8 °C 34327.3 hPa WSW 15 km/h 15 km/h 47 % 0 mm
18:14 -2 °C -8.7 °C 34327.3 hPa SW 15 km/h 15 km/h 48 % 0 mm
18:19 -2 °C -8.7 °C 34327.3 hPa WSW 17.9 km/h 17.9 km/h 48 % 0 mm
18:24 -2.1 °C -8.8 °C 34327.3 hPa SSW 11.9 km/h 11.9 km/h 48 % 0 mm
18:29 -2.1 °C -8.8 °C 34327.3 hPa SW 15 km/h 15 km/h 48 % 0 mm
18:34 -2.1 °C -8.8 °C 34327.3 hPa SW 11.9 km/h 11.9 km/h 48 % 0 mm
18:39 -2.1 °C -8.8 °C 34327.3 hPa WSW 23.8 km/h 23.8 km/h 48 % 0 mm
18:44 -2.1 °C -8.8 °C 34293.4 hPa SW 15 km/h 15 km/h 48 % 0 mm
18:49 -2.1 °C -8.8 °C 34293.4 hPa SW 17.9 km/h 17.9 km/h 48 % 0 mm
18:54 -2.1 °C -8.8 °C 34293.4 hPa West 9 km/h 9 km/h 48 % 0 mm
18:59 -2.1 °C -8.8 °C 34327.3 hPa SW 11.9 km/h 11.9 km/h 48 % 0 mm
19:04 -2.2 °C -8.9 °C 34327.3 hPa SW 15 km/h 15 km/h 48 % 0 mm
19:09 -2.2 °C -8.9 °C 34327.3 hPa WSW 15.6 km/h 15.6 km/h 48 % 0 mm
19:14 -2.2 °C -8.9 °C 34327.3 hPa SW 11.9 km/h 11.9 km/h 48 % 0 mm
19:19 -2.2 °C -8.8 °C 34327.3 hPa WSW 9 km/h 9 km/h 48 % 0 mm
19:24 -2.2 °C -9.1 °C 34327.3 hPa WSW 11.9 km/h 11.9 km/h 47 % 0 mm
19:29 -2.2 °C -9.1 °C 34327.3 hPa West 11.9 km/h 11.9 km/h 47 % 0 mm
19:34 -2.2 °C -9.1 °C 34327.3 hPa West 7.6 km/h 7.6 km/h 47 % 0 mm
19:39 -2.2 °C -9.1 °C 34327.3 hPa SW 8.5 km/h 8.5 km/h 47 % 0 mm
19:44 -2.2 °C -9.1 °C 34327.3 hPa West 6.8 km/h 6.8 km/h 47 % 0 mm
19:49 -2.3 °C -9.2 °C 34327.3 hPa West 6 km/h 6 km/h 47 % 0 mm
19:54 -2.3 °C -9.2 °C 34327.3 hPa SSW 6.3 km/h 6.3 km/h 47 % 0 mm
19:59 -2.4 °C -9.1 °C 34327.3 hPa SW 6 km/h 6 km/h 48 % 0 mm
20:04 -2.4 °C -9.1 °C 34327.3 hPa SW 6 km/h 6.3 km/h 48 % 0 mm
20:06 -2.4 °C -9.1 °C 34327.3 hPa WSW 6 km/h 6 km/h 48 % 0 mm
20:11 -2.4 °C -9.1 °C 34327.3 hPa WSW 6 km/h 6 km/h 48 % 0 mm
20:16 -2.4 °C -9.1 °C 34327.3 hPa SW 5.1 km/h 5.1 km/h 48 % 0 mm
20:21 -2.5 °C -9.2 °C 34327.3 hPa SW 6 km/h 6 km/h 48 % 0 mm
20:26 -2.6 °C -9.2 °C 34327.3 hPa WSW 6 km/h 6 km/h 48 % 0 mm
20:31 -2.6 °C -9.2 °C 34327.3 hPa SW 6.8 km/h 6.8 km/h 48 % 0 mm
20:36 -2.6 °C -9.3 °C 34327.3 hPa WSW 6 km/h 6 km/h 48 % 0 mm
20:41 -2.6 °C -9.3 °C 34327.3 hPa SW 6 km/h 6 km/h 48 % 0 mm
20:46 -2.7 °C -9.2 °C 34327.3 hPa South 3.7 km/h 3.7 km/h 49 % 0 mm
20:51 -2.8 °C -9.2 °C 34327.3 hPa WSW 9 km/h 9 km/h 49 % 0 mm
20:56 -2.8 °C -9.1 °C 34327.3 hPa SW 9 km/h 9 km/h 50 % 0 mm
21:01 -2.9 °C -9.2 °C 34327.3 hPa SW 9 km/h 9 km/h 50 % 0 mm
21:06 -2.9 °C -9.1 °C 34327.3 hPa WSW 9 km/h 9 km/h 51 % 0 mm
21:11 -3 °C -9.1 °C 34327.3 hPa SW 6 km/h 6 km/h 51 % 0 mm
21:16 -3.1 °C -9.2 °C 34327.3 hPa SSW 9 km/h 9 km/h 51 % 0 mm
21:21 -3.2 °C -9.1 °C 34327.3 hPa SW 6 km/h 6 km/h 52 % 0 mm
21:26 -3.2 °C -9.1 °C 34327.3 hPa SW 11.9 km/h 11.9 km/h 52 % 0 mm
21:31 -3.3 °C -9 °C 34327.3 hPa SSW 8.5 km/h 8.5 km/h 53 % 0 mm
21:36 -3.3 °C -9.1 °C 34327.3 hPa SW 9 km/h 9 km/h 53 % 0 mm
21:41 -3.4 °C -9.1 °C 34327.3 hPa WSW 6 km/h 6 km/h 53 % 0 mm
21:46 -3.5 °C -9.2 °C 34327.3 hPa SW 9.8 km/h 9.8 km/h 53 % 0 mm
21:51 -3.6 °C -9.2 °C 34327.3 hPa WSW 11.9 km/h 11.9 km/h 54 % 0 mm
21:56 -3.6 °C -9.2 °C 34327.3 hPa WNW 11.9 km/h 11.9 km/h 54 % 0 mm
22:01 -3.7 °C -9.1 °C 34361.1 hPa SW 9 km/h 9 km/h 55 % 0 mm
22:06 -3.7 °C -9.1 °C 34361.1 hPa West 11.9 km/h 11.9 km/h 55 % 0 mm
22:11 -3.7 °C -9.1 °C 34361.1 hPa WSW 10.3 km/h 10.3 km/h 55 % 0 mm
22:16 -3.8 °C -9.2 °C 34361.1 hPa West 11.9 km/h 11.9 km/h 55 % 0 mm
22:21 -3.8 °C -9.2 °C 34361.1 hPa WSW 9.8 km/h 9.8 km/h 55 % 0 mm
22:26 -3.8 °C -9.2 °C 34361.1 hPa SW 9 km/h 9 km/h 55 % 0 mm
22:31 -3.9 °C -9.1 °C 34361.1 hPa SW 6 km/h 6 km/h 56 % 0 mm
22:36 -3.9 °C -9.2 °C 34361.1 hPa WSW 11.9 km/h 11.9 km/h 56 % 0 mm
22:41 -4 °C -9.1 °C 34361.1 hPa WSW 4.2 km/h 4.2 km/h 57 % 0 mm
22:46 -4.1 °C -9.1 °C 34361.1 hPa SW 6.8 km/h 6.8 km/h 57 % 0 mm
22:51 -4.1 °C -9.3 °C 34361.1 hPa West 8.5 km/h 8.5 km/h 56 % 0 mm
22:56 -4.1 °C -9.3 °C 34361.1 hPa SW 9.8 km/h 9.8 km/h 56 % 0 mm
23:01 -4.1 °C -9.3 °C 34361.1 hPa SW 6.3 km/h 6.3 km/h 56 % 0 mm
23:06 -4.2 °C -9.2 °C 34361.1 hPa SW 6 km/h 6 km/h 57 % 0 mm
23:11 -4.2 °C -9.4 °C 34361.1 hPa WSW 6 km/h 6 km/h 56 % 0 mm
23:16 -4.2 °C -9.4 °C 34395 hPa West 9.3 km/h 9.3 km/h 56 % 0 mm
23:21 -4.2 °C -9.4 °C 34395 hPa WSW 6.8 km/h 6.8 km/h 56 % 0 mm
23:26 -4.3 °C -9.5 °C 34395 hPa West 6 km/h 6 km/h 56 % 0 mm
23:31 -4.3 °C -9.3 °C 34395 hPa WSW 6 km/h 6 km/h 57 % 0 mm
23:36 -4.4 °C -9.4 °C 34395 hPa West 5.6 km/h 5.6 km/h 57 % 0 mm
23:41 -4.4 °C -9.4 °C 34395 hPa WSW 3.7 km/h 3.7 km/h 57 % 0 mm
23:46 -4.4 °C -9.4 °C 34395 hPa West 3.7 km/h 3.7 km/h 57 % 0 mm
23:51 -4.4 °C -9.6 °C 34395 hPa West 6 km/h 6 km/h 56 % 0 mm
23:56 -4.4 °C -9.6 °C 34395 hPa West 6 km/h 6 km/h 56 % 0 mm
Meteo Sesrovires
Elogis d' Weather Underground - 1.5 mb

Guio original per  Jim McMurry - jmcmurry@mwt.net Adaptat per a la plantilla per  Wim van der Kuil - Leuven-Template.eu

Trobareu la nostra informacio del temps tambe a:

Weather Underground

AWEKAS